NPV1435 LIRZ-LIME
Flight info
| Callsign | NPV1435 |
|---|---|
| Flight time | 1h 18m |
| Altitude | 5500 |
| Route | RZNW2 RZNW1 PRW1 PES2 PESW1 PEW1 MPNE1 MPNE2 POW2 MES1 MES2 |
| Aircraft | SR22/L-SDG/S |
Departure
| Time | 2026-04-27 10:01 |
|---|---|
| Airport | Perugia San Francesco d'Assisi – Umbria International Airport (LIRZ) |
Arrival
| Time | 2026-04-27 11:19 |
|---|---|
| Airport | Il Caravaggio International Airport (LIME) |
| Time | Latitude | Longitude | Altitude | Speed | Heading |
|---|---|---|---|---|---|
| 2026-04-27 09:35 | 43.09831 | 12.50307 | 679 ft | 0 kts | 270° |
| 2026-04-27 09:51 | 43.09831 | 12.50306 | 681 ft | 1 kts | 270° |
| 2026-04-27 09:51 | 43.09825 | 12.50286 | 681 ft | 5 kts | 215° |
| 2026-04-27 09:52 | 43.09806 | 12.50318 | 681 ft | 7 kts | 86° |
| 2026-04-27 09:52 | 43.09775 | 12.50344 | 680 ft | 6 kts | 194° |
| 2026-04-27 09:52 | 43.09712 | 12.50343 | 680 ft | 11 kts | 175° |
| 2026-04-27 09:52 | 43.09639 | 12.50392 | 680 ft | 10 kts | 99° |
| 2026-04-27 09:53 | 43.09576 | 12.50428 | 680 ft | 11 kts | 153° |
| 2026-04-27 09:53 | 43.09488 | 12.50470 | 680 ft | 15 kts | 159° |
| 2026-04-27 09:53 | 43.09385 | 12.50535 | 678 ft | 17 kts | 153° |
| 2026-04-27 09:53 | 43.09280 | 12.50622 | 677 ft | 17 kts | 146° |
| 2026-04-27 09:54 | 43.09177 | 12.50708 | 676 ft | 17 kts | 148° |
| 2026-04-27 09:54 | 43.09082 | 12.50830 | 674 ft | 20 kts | 124° |
| 2026-04-27 09:54 | 43.09041 | 12.50980 | 674 ft | 4 kts | 107° |
| 2026-04-27 09:54 | 43.09041 | 12.50981 | 674 ft | 0 kts | 108° |
| 2026-04-27 10:00 | 43.09032 | 12.51029 | 674 ft | 9 kts | 100° |
| 2026-04-27 10:00 | 43.09032 | 12.51115 | 674 ft | 3 kts | 58° |
| 2026-04-27 10:00 | 43.09081 | 12.51142 | 675 ft | 26 kts | 12° |
| 2026-04-27 10:00 | 43.09485 | 12.51276 | 744 ft | 79 kts | 14° |
| 2026-04-27 10:01 | 43.10025 | 12.51465 | 1037 ft | 86 kts | 11° |
| 2026-04-27 10:01 | 43.10641 | 12.51666 | 1318 ft | 93 kts | 13° |
| 2026-04-27 10:01 | 43.11367 | 12.51927 | 1485 ft | 112 kts | 6° |
| 2026-04-27 10:01 | 43.12110 | 12.51790 | 1870 ft | 108 kts | 340° |
| 2026-04-27 10:02 | 43.12796 | 12.51389 | 2194 ft | 110 kts | 335° |
| 2026-04-27 10:02 | 43.13518 | 12.50933 | 2485 ft | 115 kts | 335° |
| 2026-04-27 10:02 | 43.14334 | 12.50444 | 2538 ft | 140 kts | 337° |
| 2026-04-27 10:02 | 43.15241 | 12.49810 | 2662 ft | 153 kts | 325° |
| 2026-04-27 10:03 | 43.16053 | 12.48779 | 2708 ft | 166 kts | 313° |
| 2026-04-27 10:03 | 43.16779 | 12.47499 | 2565 ft | 171 kts | 309° |
| 2026-04-27 10:03 | 43.17498 | 12.46254 | 2519 ft | 169 kts | 308° |
| 2026-04-27 10:03 | 43.18257 | 12.44998 | 2472 ft | 167 kts | 319° |
| 2026-04-27 10:04 | 43.19125 | 12.43979 | 2436 ft | 165 kts | 324° |
| 2026-04-27 10:04 | 43.20054 | 12.43060 | 2430 ft | 163 kts | 326° |
| 2026-04-27 10:04 | 43.20960 | 12.42143 | 2433 ft | 160 kts | 324° |
| 2026-04-27 10:04 | 43.21837 | 12.41231 | 2435 ft | 159 kts | 324° |
| 2026-04-27 10:05 | 43.22726 | 12.40305 | 2435 ft | 157 kts | 324° |
| 2026-04-27 10:05 | 43.23598 | 12.39395 | 2440 ft | 160 kts | 324° |
| 2026-04-27 10:05 | 43.24493 | 12.38463 | 2542 ft | 158 kts | 324° |
| 2026-04-27 10:05 | 43.25361 | 12.37555 | 2547 ft | 157 kts | 324° |
| 2026-04-27 10:06 | 43.26231 | 12.36644 | 2544 ft | 156 kts | 324° |
| 2026-04-27 10:06 | 43.27089 | 12.35744 | 2550 ft | 156 kts | 324° |
| 2026-04-27 10:06 | 43.27955 | 12.34837 | 2550 ft | 156 kts | 323° |
| 2026-04-27 10:06 | 43.28825 | 12.33923 | 2543 ft | 156 kts | 323° |
| 2026-04-27 10:07 | 43.29694 | 12.33010 | 2545 ft | 156 kts | 323° |
| 2026-04-27 10:07 | 43.30557 | 12.32105 | 2542 ft | 155 kts | 323° |
| 2026-04-27 10:07 | 43.31419 | 12.31202 | 2539 ft | 155 kts | 323° |
| 2026-04-27 10:07 | 43.32274 | 12.30310 | 2540 ft | 154 kts | 323° |
| 2026-04-27 10:08 | 43.33125 | 12.29423 | 2539 ft | 154 kts | 323° |
| 2026-04-27 10:08 | 43.34022 | 12.28626 | 2536 ft | 154 kts | 343° |
| 2026-04-27 10:08 | 43.35090 | 12.28565 | 2545 ft | 153 kts | 1° |
| 2026-04-27 10:08 | 43.36153 | 12.28431 | 2537 ft | 153 kts | 348° |
| 2026-04-27 10:09 | 43.37164 | 12.28034 | 2536 ft | 153 kts | 341° |
| 2026-04-27 10:09 | 43.38163 | 12.27498 | 2534 ft | 153 kts | 338° |
| 2026-04-27 10:09 | 43.39148 | 12.26896 | 2534 ft | 153 kts | 336° |
| 2026-04-27 10:09 | 43.40115 | 12.26273 | 2534 ft | 153 kts | 335° |
| 2026-04-27 10:10 | 43.41073 | 12.25644 | 2531 ft | 153 kts | 335° |
| 2026-04-27 10:10 | 43.42036 | 12.25005 | 2531 ft | 153 kts | 335° |
| 2026-04-27 10:10 | 43.42998 | 12.24365 | 2533 ft | 153 kts | 335° |
| 2026-04-27 10:10 | 43.43958 | 12.23726 | 2533 ft | 153 kts | 335° |
| 2026-04-27 10:11 | 43.44921 | 12.23083 | 2533 ft | 154 kts | 335° |
| 2026-04-27 10:11 | 43.45885 | 12.22441 | 2535 ft | 154 kts | 335° |
| 2026-04-27 10:11 | 43.46858 | 12.21790 | 2535 ft | 154 kts | 335° |
| 2026-04-27 10:11 | 43.47826 | 12.21143 | 2532 ft | 154 kts | 335° |
| 2026-04-27 10:12 | 43.48785 | 12.20502 | 2532 ft | 154 kts | 335° |
| 2026-04-27 10:12 | 43.49755 | 12.19854 | 2532 ft | 154 kts | 335° |
| 2026-04-27 10:12 | 43.50713 | 12.19213 | 2534 ft | 154 kts | 335° |
| 2026-04-27 10:12 | 43.51674 | 12.18570 | 2534 ft | 154 kts | 335° |
| 2026-04-27 10:13 | 43.52635 | 12.17929 | 2533 ft | 154 kts | 335° |
| 2026-04-27 10:13 | 43.53604 | 12.17284 | 2533 ft | 154 kts | 335° |
| 2026-04-27 10:13 | 43.54567 | 12.16642 | 2533 ft | 153 kts | 335° |
| 2026-04-27 10:13 | 43.55539 | 12.15994 | 2533 ft | 153 kts | 335° |
| 2026-04-27 10:14 | 43.56500 | 12.15352 | 2533 ft | 153 kts | 335° |
| 2026-04-27 10:14 | 43.57452 | 12.14714 | 2531 ft | 153 kts | 335° |
| 2026-04-27 10:14 | 43.58424 | 12.14062 | 2529 ft | 157 kts | 335° |
| 2026-04-27 10:14 | 43.59409 | 12.13401 | 2752 ft | 158 kts | 335° |
| 2026-04-27 10:15 | 43.60383 | 12.12748 | 3036 ft | 155 kts | 334° |
| 2026-04-27 10:15 | 43.61354 | 12.12094 | 3304 ft | 155 kts | 334° |
| 2026-04-27 10:15 | 43.62323 | 12.11442 | 3550 ft | 156 kts | 334° |
| 2026-04-27 10:15 | 43.63302 | 12.10782 | 3801 ft | 157 kts | 334° |
| 2026-04-27 10:16 | 43.64292 | 12.10116 | 4053 ft | 158 kts | 334° |
| 2026-04-27 10:16 | 43.65279 | 12.09453 | 4295 ft | 158 kts | 334° |
| 2026-04-27 10:16 | 43.66270 | 12.08787 | 4473 ft | 163 kts | 334° |
| 2026-04-27 10:16 | 43.67327 | 12.08077 | 4492 ft | 174 kts | 334° |
| 2026-04-27 10:17 | 43.68443 | 12.07327 | 4490 ft | 181 kts | 334° |
| 2026-04-27 10:17 | 43.69581 | 12.06562 | 4487 ft | 185 kts | 334° |
| 2026-04-27 10:17 | 43.70731 | 12.05790 | 4480 ft | 178 kts | 335° |
| 2026-04-27 10:17 | 43.71815 | 12.05060 | 4481 ft | 172 kts | 334° |
| 2026-04-27 10:18 | 43.72881 | 12.04341 | 4481 ft | 168 kts | 334° |
| 2026-04-27 10:18 | 43.73917 | 12.03642 | 4483 ft | 165 kts | 334° |
| 2026-04-27 10:18 | 43.74951 | 12.02943 | 4484 ft | 164 kts | 334° |
| 2026-04-27 10:18 | 43.75967 | 12.02257 | 4482 ft | 164 kts | 334° |
| 2026-04-27 10:19 | 43.76991 | 12.01563 | 4485 ft | 164 kts | 334° |
| 2026-04-27 10:19 | 43.78025 | 12.00863 | 4482 ft | 164 kts | 334° |
| 2026-04-27 10:19 | 43.79047 | 12.00172 | 4483 ft | 163 kts | 335° |
| 2026-04-27 10:19 | 43.80060 | 11.99486 | 4480 ft | 163 kts | 335° |
| 2026-04-27 10:20 | 43.81090 | 11.98791 | 4480 ft | 163 kts | 335° |
| 2026-04-27 10:20 | 43.82109 | 11.98101 | 4480 ft | 162 kts | 335° |
| 2026-04-27 10:20 | 43.83117 | 11.97420 | 4483 ft | 162 kts | 334° |
| 2026-04-27 10:20 | 43.84134 | 11.96732 | 4482 ft | 163 kts | 334° |
| 2026-04-27 10:21 | 43.85160 | 11.96037 | 4479 ft | 163 kts | 334° |
| 2026-04-27 10:21 | 43.86163 | 11.95357 | 4480 ft | 162 kts | 334° |
| 2026-04-27 10:21 | 43.87178 | 11.94668 | 4479 ft | 162 kts | 334° |
| 2026-04-27 10:21 | 43.88191 | 11.93982 | 4482 ft | 162 kts | 334° |
| 2026-04-27 10:22 | 43.89212 | 11.93288 | 4481 ft | 162 kts | 334° |
| 2026-04-27 10:22 | 43.90229 | 11.92597 | 4480 ft | 162 kts | 334° |
| 2026-04-27 10:22 | 43.91243 | 11.91908 | 4479 ft | 162 kts | 334° |
| 2026-04-27 10:22 | 43.92245 | 11.91226 | 4480 ft | 162 kts | 335° |
| 2026-04-27 10:23 | 43.93266 | 11.90534 | 4478 ft | 162 kts | 334° |
| 2026-04-27 10:23 | 43.94208 | 11.89697 | 4474 ft | 163 kts | 318° |
| 2026-04-27 10:23 | 43.95016 | 11.88573 | 4480 ft | 163 kts | 315° |
| 2026-04-27 10:23 | 43.95795 | 11.87447 | 4479 ft | 163 kts | 314° |
| 2026-04-27 10:24 | 43.96578 | 11.86310 | 4478 ft | 163 kts | 314° |
| 2026-04-27 10:24 | 43.97357 | 11.85178 | 4479 ft | 163 kts | 314° |
| 2026-04-27 10:24 | 43.98150 | 11.84027 | 4479 ft | 163 kts | 314° |
| 2026-04-27 10:24 | 43.98925 | 11.82900 | 4481 ft | 163 kts | 315° |
| 2026-04-27 10:25 | 43.99717 | 11.81749 | 4482 ft | 163 kts | 314° |
| 2026-04-27 10:25 | 44.00500 | 11.80612 | 4480 ft | 164 kts | 314° |
| 2026-04-27 10:25 | 44.01283 | 11.79473 | 4481 ft | 163 kts | 314° |
| 2026-04-27 10:25 | 44.02065 | 11.78335 | 4482 ft | 163 kts | 314° |
| 2026-04-27 10:26 | 44.02850 | 11.77192 | 4479 ft | 163 kts | 314° |
| 2026-04-27 10:26 | 44.03633 | 11.76049 | 4480 ft | 163 kts | 314° |
| 2026-04-27 10:26 | 44.04424 | 11.74896 | 4477 ft | 163 kts | 314° |
| 2026-04-27 10:26 | 44.05203 | 11.73761 | 4478 ft | 163 kts | 314° |
| 2026-04-27 10:27 | 44.05981 | 11.72626 | 4477 ft | 163 kts | 315° |
| 2026-04-27 10:27 | 44.06768 | 11.71479 | 4477 ft | 163 kts | 314° |
| 2026-04-27 10:27 | 44.07551 | 11.70336 | 4478 ft | 163 kts | 315° |
| 2026-04-27 10:27 | 44.08333 | 11.69195 | 4478 ft | 163 kts | 314° |
| 2026-04-27 10:28 | 44.09113 | 11.68056 | 4477 ft | 163 kts | 314° |
| 2026-04-27 10:28 | 44.09899 | 11.66908 | 4477 ft | 163 kts | 314° |
| 2026-04-27 10:28 | 44.10685 | 11.65759 | 4477 ft | 163 kts | 314° |
| 2026-04-27 10:28 | 44.11460 | 11.64626 | 4475 ft | 162 kts | 314° |
| 2026-04-27 10:29 | 44.12243 | 11.63480 | 4475 ft | 162 kts | 314° |
| 2026-04-27 10:29 | 44.13023 | 11.62338 | 4475 ft | 162 kts | 314° |
| 2026-04-27 10:29 | 44.13802 | 11.61196 | 4476 ft | 162 kts | 314° |
| 2026-04-27 10:29 | 44.14582 | 11.60051 | 4476 ft | 162 kts | 315° |
| 2026-04-27 10:30 | 44.15358 | 11.58915 | 4475 ft | 163 kts | 314° |
| 2026-04-27 10:30 | 44.16137 | 11.57775 | 4476 ft | 163 kts | 314° |
| 2026-04-27 10:30 | 44.16927 | 11.56617 | 4475 ft | 164 kts | 314° |
| 2026-04-27 10:30 | 44.17713 | 11.55466 | 4475 ft | 164 kts | 314° |
| 2026-04-27 10:31 | 44.18495 | 11.54318 | 4473 ft | 164 kts | 314° |
| 2026-04-27 10:31 | 44.19282 | 11.53161 | 4470 ft | 164 kts | 314° |
| 2026-04-27 10:31 | 44.20070 | 11.52004 | 4470 ft | 164 kts | 314° |
| 2026-04-27 10:31 | 44.20860 | 11.50843 | 4473 ft | 165 kts | 314° |
| 2026-04-27 10:32 | 44.21646 | 11.49684 | 4468 ft | 165 kts | 314° |
| 2026-04-27 10:32 | 44.22438 | 11.48520 | 4469 ft | 165 kts | 314° |
| 2026-04-27 10:32 | 44.23224 | 11.47364 | 4470 ft | 165 kts | 314° |
| 2026-04-27 10:32 | 44.24017 | 11.46198 | 4472 ft | 165 kts | 314° |
| 2026-04-27 10:33 | 44.24798 | 11.45045 | 4475 ft | 165 kts | 314° |
| 2026-04-27 10:33 | 44.25589 | 11.43880 | 4474 ft | 165 kts | 314° |
| 2026-04-27 10:33 | 44.26380 | 11.42714 | 4475 ft | 165 kts | 314° |
| 2026-04-27 10:33 | 44.27172 | 11.41548 | 4469 ft | 165 kts | 314° |
| 2026-04-27 10:34 | 44.27954 | 11.40395 | 4472 ft | 164 kts | 314° |
| 2026-04-27 10:34 | 44.28745 | 11.39228 | 4474 ft | 164 kts | 314° |
| 2026-04-27 10:34 | 44.29535 | 11.38061 | 4475 ft | 164 kts | 314° |
| 2026-04-27 10:34 | 44.30322 | 11.36899 | 4473 ft | 164 kts | 314° |
| 2026-04-27 10:35 | 44.31109 | 11.35735 | 4473 ft | 164 kts | 314° |
| 2026-04-27 10:35 | 44.31897 | 11.34570 | 4472 ft | 164 kts | 313° |
| 2026-04-27 10:35 | 44.32687 | 11.33405 | 4473 ft | 164 kts | 313° |
| 2026-04-27 10:35 | 44.33466 | 11.32254 | 4476 ft | 164 kts | 313° |
| 2026-04-27 10:36 | 44.34246 | 11.31099 | 4476 ft | 164 kts | 313° |
| 2026-04-27 10:36 | 44.35034 | 11.29930 | 4475 ft | 164 kts | 313° |
| 2026-04-27 10:36 | 44.35813 | 11.28774 | 4473 ft | 164 kts | 313° |
| 2026-04-27 10:36 | 44.36600 | 11.27604 | 4471 ft | 164 kts | 314° |
| 2026-04-27 10:37 | 44.37373 | 11.26456 | 4469 ft | 164 kts | 314° |
| 2026-04-27 10:37 | 44.38166 | 11.25283 | 4469 ft | 164 kts | 314° |
| 2026-04-27 10:37 | 44.38947 | 11.24127 | 4470 ft | 163 kts | 313° |
| 2026-04-27 10:37 | 44.39720 | 11.22973 | 4471 ft | 163 kts | 313° |
| 2026-04-27 10:38 | 44.40500 | 11.21808 | 4471 ft | 163 kts | 313° |
| 2026-04-27 10:38 | 44.41275 | 11.20648 | 4470 ft | 164 kts | 313° |
| 2026-04-27 10:38 | 44.42052 | 11.19487 | 4469 ft | 164 kts | 313° |
| 2026-04-27 10:38 | 44.42836 | 11.18314 | 4469 ft | 164 kts | 313° |
| 2026-04-27 10:39 | 44.43616 | 11.17141 | 4465 ft | 164 kts | 313° |
| 2026-04-27 10:39 | 44.44389 | 11.15981 | 4463 ft | 164 kts | 313° |
| 2026-04-27 10:39 | 44.45173 | 11.14807 | 4462 ft | 164 kts | 313° |
| 2026-04-27 10:39 | 44.45951 | 11.13641 | 4462 ft | 164 kts | 313° |
| 2026-04-27 10:40 | 44.46734 | 11.12469 | 4461 ft | 164 kts | 313° |
| 2026-04-27 10:40 | 44.47522 | 11.11282 | 4457 ft | 164 kts | 313° |
| 2026-04-27 10:40 | 44.48296 | 11.10120 | 4453 ft | 164 kts | 313° |
| 2026-04-27 10:40 | 44.49084 | 11.08938 | 4450 ft | 164 kts | 313° |
| 2026-04-27 10:41 | 44.49865 | 11.07764 | 4449 ft | 164 kts | 313° |
| 2026-04-27 10:41 | 44.50642 | 11.06596 | 4447 ft | 164 kts | 313° |
| 2026-04-27 10:41 | 44.51427 | 11.05416 | 4447 ft | 164 kts | 313° |
| 2026-04-27 10:41 | 44.52207 | 11.04242 | 4449 ft | 164 kts | 313° |
| 2026-04-27 10:42 | 44.52983 | 11.03076 | 4449 ft | 164 kts | 313° |
| 2026-04-27 10:42 | 44.53778 | 11.01912 | 4447 ft | 165 kts | 314° |
| 2026-04-27 10:42 | 44.54569 | 11.00760 | 4447 ft | 165 kts | 314° |
| 2026-04-27 10:42 | 44.55360 | 10.99607 | 4434 ft | 161 kts | 314° |
| 2026-04-27 10:43 | 44.56147 | 10.98461 | 4224 ft | 162 kts | 314° |
| 2026-04-27 10:43 | 44.56930 | 10.97320 | 3984 ft | 164 kts | 315° |
| 2026-04-27 10:43 | 44.57719 | 10.96169 | 3766 ft | 164 kts | 315° |
| 2026-04-27 10:43 | 44.58512 | 10.95012 | 3554 ft | 163 kts | 315° |
| 2026-04-27 10:44 | 44.59298 | 10.93865 | 3338 ft | 163 kts | 315° |
| 2026-04-27 10:44 | 44.60076 | 10.92727 | 3119 ft | 163 kts | 314° |
| 2026-04-27 10:44 | 44.60856 | 10.91574 | 2900 ft | 162 kts | 314° |
| 2026-04-27 10:44 | 44.61643 | 10.90413 | 2672 ft | 162 kts | 314° |
| 2026-04-27 10:45 | 44.62420 | 10.89270 | 2447 ft | 162 kts | 314° |
| 2026-04-27 10:45 | 44.63203 | 10.88123 | 2218 ft | 162 kts | 314° |
| 2026-04-27 10:45 | 44.63983 | 10.86981 | 2001 ft | 161 kts | 314° |
| 2026-04-27 10:45 | 44.64736 | 10.85875 | 1942 ft | 150 kts | 315° |
| 2026-04-27 10:46 | 44.65428 | 10.84858 | 1936 ft | 137 kts | 315° |
| 2026-04-27 10:46 | 44.66061 | 10.83935 | 1936 ft | 127 kts | 316° |
| 2026-04-27 10:46 | 44.66667 | 10.83099 | 1936 ft | 118 kts | 317° |
| 2026-04-27 10:46 | 44.67236 | 10.82318 | 1935 ft | 110 kts | 317° |
| 2026-04-27 10:47 | 44.67767 | 10.81589 | 1934 ft | 103 kts | 317° |
| 2026-04-27 10:47 | 44.68272 | 10.80897 | 1936 ft | 98 kts | 317° |
| 2026-04-27 10:47 | 44.68750 | 10.80242 | 1936 ft | 94 kts | 317° |
| 2026-04-27 10:47 | 44.69210 | 10.79610 | 1937 ft | 90 kts | 318° |
| 2026-04-27 10:48 | 44.69671 | 10.78978 | 1968 ft | 104 kts | 316° |
| 2026-04-27 10:48 | 44.70269 | 10.78155 | 1985 ft | 136 kts | 316° |
| 2026-04-27 10:48 | 44.71014 | 10.77131 | 1969 ft | 161 kts | 317° |
| 2026-04-27 10:48 | 44.71842 | 10.76001 | 1950 ft | 166 kts | 317° |
| 2026-04-27 10:49 | 44.72677 | 10.74864 | 1945 ft | 167 kts | 317° |
| 2026-04-27 10:49 | 44.73504 | 10.73734 | 1945 ft | 167 kts | 317° |
| 2026-04-27 10:49 | 44.74337 | 10.72593 | 1945 ft | 167 kts | 317° |
| 2026-04-27 10:49 | 44.75170 | 10.71449 | 1944 ft | 167 kts | 317° |
| 2026-04-27 10:50 | 44.76004 | 10.70305 | 1943 ft | 167 kts | 317° |
| 2026-04-27 10:50 | 44.76838 | 10.69160 | 1944 ft | 167 kts | 317° |
| 2026-04-27 10:50 | 44.77663 | 10.68026 | 1945 ft | 167 kts | 317° |
| 2026-04-27 10:50 | 44.78505 | 10.66869 | 1943 ft | 167 kts | 317° |
| 2026-04-27 10:51 | 44.79337 | 10.65724 | 1944 ft | 167 kts | 317° |
| 2026-04-27 10:51 | 44.80163 | 10.64588 | 1945 ft | 167 kts | 317° |
| 2026-04-27 10:51 | 44.80991 | 10.63448 | 1946 ft | 166 kts | 317° |
| 2026-04-27 10:51 | 44.81825 | 10.62300 | 1946 ft | 166 kts | 317° |
| 2026-04-27 10:52 | 44.82653 | 10.61158 | 1946 ft | 166 kts | 317° |
| 2026-04-27 10:52 | 44.83481 | 10.60018 | 1944 ft | 166 kts | 317° |
| 2026-04-27 10:52 | 44.84311 | 10.58871 | 1944 ft | 166 kts | 317° |
| 2026-04-27 10:52 | 44.85133 | 10.57737 | 1945 ft | 166 kts | 317° |
| 2026-04-27 10:53 | 44.85964 | 10.56590 | 1945 ft | 166 kts | 317° |
| 2026-04-27 10:53 | 44.87609 | 10.54320 | 1945 ft | 166 kts | 317° |
| 2026-04-27 10:53 | 44.88441 | 10.53170 | 1944 ft | 166 kts | 317° |
| 2026-04-27 10:54 | 44.89265 | 10.52030 | 1944 ft | 166 kts | 317° |
| 2026-04-27 10:54 | 44.90100 | 10.50891 | 1944 ft | 166 kts | 319° |
| 2026-04-27 10:54 | 44.90965 | 10.49806 | 1946 ft | 166 kts | 320° |
| 2026-04-27 10:54 | 44.91830 | 10.48726 | 1946 ft | 166 kts | 320° |
| 2026-04-27 10:55 | 44.92706 | 10.47633 | 1946 ft | 166 kts | 320° |
| 2026-04-27 10:55 | 44.93568 | 10.46556 | 1945 ft | 166 kts | 320° |
| 2026-04-27 10:55 | 44.94423 | 10.45487 | 1945 ft | 166 kts | 320° |
| 2026-04-27 10:55 | 44.95295 | 10.44397 | 1944 ft | 166 kts | 320° |
| 2026-04-27 10:56 | 44.96156 | 10.43319 | 1945 ft | 166 kts | 320° |
| 2026-04-27 10:56 | 44.97020 | 10.42240 | 1944 ft | 166 kts | 320° |
| 2026-04-27 10:56 | 44.97882 | 10.41162 | 1944 ft | 166 kts | 321° |
| 2026-04-27 10:56 | 44.98786 | 10.40145 | 1945 ft | 165 kts | 324° |
| 2026-04-27 10:57 | 44.99703 | 10.39140 | 1945 ft | 165 kts | 324° |
| 2026-04-27 10:57 | 45.00610 | 10.38145 | 1946 ft | 165 kts | 324° |
| 2026-04-27 10:57 | 45.01523 | 10.37145 | 1945 ft | 165 kts | 324° |
| 2026-04-27 10:57 | 45.02439 | 10.36140 | 1944 ft | 166 kts | 324° |
| 2026-04-27 10:58 | 45.03347 | 10.35143 | 1943 ft | 166 kts | 324° |
| 2026-04-27 10:58 | 45.04253 | 10.34147 | 1941 ft | 166 kts | 323° |
| 2026-04-27 10:58 | 45.05173 | 10.33136 | 1933 ft | 163 kts | 323° |
| 2026-04-27 10:58 | 45.06061 | 10.32161 | 1787 ft | 163 kts | 323° |
| 2026-04-27 10:59 | 45.06967 | 10.31165 | 1627 ft | 164 kts | 323° |
| 2026-04-27 10:59 | 45.07870 | 10.30171 | 1488 ft | 163 kts | 323° |
| 2026-04-27 10:59 | 45.08753 | 10.29199 | 1441 ft | 157 kts | 324° |
| 2026-04-27 11:00 | 45.10411 | 10.27369 | 1441 ft | 150 kts | 323° |
| 2026-04-27 11:00 | 45.11236 | 10.26460 | 1443 ft | 151 kts | 323° |
| 2026-04-27 11:00 | 45.12078 | 10.25529 | 1443 ft | 151 kts | 323° |
| 2026-04-27 11:00 | 45.12902 | 10.24620 | 1466 ft | 150 kts | 323° |
| 2026-04-27 11:01 | 45.13730 | 10.23706 | 1469 ft | 151 kts | 323° |
| 2026-04-27 11:01 | 45.14565 | 10.22785 | 1470 ft | 152 kts | 323° |
| 2026-04-27 11:01 | 45.15404 | 10.21857 | 1470 ft | 152 kts | 323° |
| 2026-04-27 11:01 | 45.16237 | 10.20936 | 1471 ft | 153 kts | 323° |
| 2026-04-27 11:02 | 45.17089 | 10.19993 | 1471 ft | 153 kts | 323° |
| 2026-04-27 11:02 | 45.17926 | 10.19066 | 1472 ft | 153 kts | 323° |
| 2026-04-27 11:02 | 45.18769 | 10.18135 | 1472 ft | 154 kts | 323° |
| 2026-04-27 11:02 | 45.19621 | 10.17191 | 1472 ft | 154 kts | 323° |
| 2026-04-27 11:03 | 45.20461 | 10.16261 | 1472 ft | 154 kts | 323° |
| 2026-04-27 11:03 | 45.21328 | 10.15301 | 1575 ft | 161 kts | 323° |
| 2026-04-27 11:03 | 45.22193 | 10.14342 | 1882 ft | 158 kts | 322° |
| 2026-04-27 11:03 | 45.23074 | 10.13364 | 1964 ft | 159 kts | 323° |
| 2026-04-27 11:04 | 45.23941 | 10.12405 | 1965 ft | 155 kts | 323° |
| 2026-04-27 11:04 | 45.24790 | 10.11463 | 1966 ft | 152 kts | 323° |
| 2026-04-27 11:04 | 45.25614 | 10.10548 | 1970 ft | 150 kts | 322° |
| 2026-04-27 11:04 | 45.26446 | 10.09625 | 1969 ft | 149 kts | 322° |
| 2026-04-27 11:05 | 45.27226 | 10.08672 | 1969 ft | 148 kts | 316° |
| 2026-04-27 11:05 | 45.27945 | 10.07625 | 1965 ft | 147 kts | 314° |
| 2026-04-27 11:05 | 45.28663 | 10.06564 | 1961 ft | 147 kts | 314° |
| 2026-04-27 11:05 | 45.29373 | 10.05517 | 1959 ft | 146 kts | 314° |
| 2026-04-27 11:06 | 45.30074 | 10.04483 | 1960 ft | 146 kts | 315° |
| 2026-04-27 11:06 | 45.30785 | 10.03435 | 1959 ft | 145 kts | 315° |
| 2026-04-27 11:06 | 45.31488 | 10.02398 | 1959 ft | 145 kts | 315° |
| 2026-04-27 11:06 | 45.32186 | 10.01369 | 1960 ft | 144 kts | 315° |
| 2026-04-27 11:07 | 45.32843 | 10.00402 | 1960 ft | 144 kts | 315° |
| 2026-04-27 11:07 | 45.33417 | 9.99556 | 1960 ft | 144 kts | 315° |
| 2026-04-27 11:07 | 45.34114 | 9.98527 | 1960 ft | 144 kts | 314° |
| 2026-04-27 11:07 | 45.34811 | 9.97498 | 1962 ft | 143 kts | 314° |
| 2026-04-27 11:08 | 45.35506 | 9.96472 | 1962 ft | 143 kts | 314° |
| 2026-04-27 11:08 | 45.36202 | 9.95444 | 1962 ft | 144 kts | 314° |
| 2026-04-27 11:08 | 45.36891 | 9.94426 | 1962 ft | 143 kts | 314° |
| 2026-04-27 11:08 | 45.37587 | 9.93397 | 1962 ft | 144 kts | 314° |
| 2026-04-27 11:09 | 45.38285 | 9.92364 | 1962 ft | 143 kts | 314° |
| 2026-04-27 11:09 | 45.38974 | 9.91346 | 1959 ft | 143 kts | 314° |
| 2026-04-27 11:09 | 45.39670 | 9.90317 | 1962 ft | 143 kts | 314° |
| 2026-04-27 11:09 | 45.40352 | 9.89308 | 1967 ft | 143 kts | 314° |
| 2026-04-27 11:10 | 45.41043 | 9.88283 | 1965 ft | 143 kts | 314° |
| 2026-04-27 11:10 | 45.41728 | 9.87268 | 1968 ft | 143 kts | 314° |
| 2026-04-27 11:10 | 45.42417 | 9.86247 | 1964 ft | 143 kts | 314° |
| 2026-04-27 11:10 | 45.43113 | 9.85215 | 1966 ft | 142 kts | 314° |
| 2026-04-27 11:11 | 45.43792 | 9.84209 | 1962 ft | 142 kts | 314° |
| 2026-04-27 11:11 | 45.44475 | 9.83194 | 1963 ft | 142 kts | 315° |
| 2026-04-27 11:11 | 45.45166 | 9.82169 | 1961 ft | 141 kts | 314° |
| 2026-04-27 11:11 | 45.45847 | 9.81158 | 1959 ft | 141 kts | 314° |
| 2026-04-27 11:12 | 45.46529 | 9.80147 | 1963 ft | 141 kts | 314° |
| 2026-04-27 11:12 | 45.47204 | 9.79145 | 1962 ft | 140 kts | 314° |
| 2026-04-27 11:12 | 45.47877 | 9.78145 | 1961 ft | 140 kts | 314° |
| 2026-04-27 11:12 | 45.48553 | 9.77141 | 1965 ft | 139 kts | 314° |
| 2026-04-27 11:13 | 45.49227 | 9.76140 | 1965 ft | 139 kts | 314° |
| 2026-04-27 11:13 | 45.49899 | 9.75138 | 1966 ft | 139 kts | 314° |
| 2026-04-27 11:13 | 45.50571 | 9.74136 | 1962 ft | 139 kts | 314° |
| 2026-04-27 11:13 | 45.51054 | 9.73419 | 1968 ft | 139 kts | 314° |
| 2026-04-27 11:14 | 45.51791 | 9.72529 | 1961 ft | 139 kts | 338° |
| 2026-04-27 11:14 | 45.52738 | 9.72452 | 1974 ft | 137 kts | 11° |
| 2026-04-27 11:14 | 45.53661 | 9.72761 | 1973 ft | 137 kts | 15° |
| 2026-04-27 11:14 | 45.54585 | 9.73129 | 1974 ft | 137 kts | 17° |
| 2026-04-27 11:15 | 45.55502 | 9.73510 | 1972 ft | 137 kts | 17° |
| 2026-04-27 11:15 | 45.56432 | 9.73903 | 1973 ft | 137 kts | 17° |
| 2026-04-27 11:15 | 45.57344 | 9.74292 | 1970 ft | 137 kts | 18° |
| 2026-04-27 11:15 | 45.58267 | 9.74686 | 1974 ft | 137 kts | 18° |
| 2026-04-27 11:16 | 45.59207 | 9.74758 | 1994 ft | 135 kts | 356° |
| 2026-04-27 11:16 | 45.60144 | 9.74894 | 1949 ft | 139 kts | 9° |
| 2026-04-27 11:16 | 45.61101 | 9.75133 | 1931 ft | 140 kts | 11° |
| 2026-04-27 11:16 | 45.62076 | 9.75362 | 1886 ft | 140 kts | 10° |
| 2026-04-27 11:17 | 45.63027 | 9.75622 | 1817 ft | 139 kts | 14° |
| 2026-04-27 11:17 | 45.63957 | 9.75963 | 1765 ft | 133 kts | 17° |
| 2026-04-27 11:17 | 45.64845 | 9.76117 | 1582 ft | 124 kts | 348° |
| 2026-04-27 11:17 | 45.65508 | 9.75563 | 1537 ft | 101 kts | 315° |
| 2026-04-27 11:18 | 45.65894 | 9.74784 | 1443 ft | 91 kts | 296° |
| 2026-04-27 11:18 | 45.66167 | 9.73967 | 1237 ft | 92 kts | 291° |
| 2026-04-27 11:18 | 45.66352 | 9.73078 | 1043 ft | 93 kts | 283° |
| 2026-04-27 11:18 | 45.66512 | 9.72189 | 894 ft | 89 kts | 282° |
| 2026-04-27 11:19 | 45.66663 | 9.71355 | 817 ft | 83 kts | 283° |
| 2026-04-27 11:19 | 45.66798 | 9.70627 | 781 ft | 65 kts | 284° |
| 2026-04-27 11:19 | 45.66878 | 9.70157 | 781 ft | 34 kts | 290° |
| 2026-04-27 11:19 | 45.66961 | 9.69986 | 783 ft | 17 kts | 314° |
| 2026-04-27 11:20 | 45.67034 | 9.69923 | 786 ft | 9 kts | 329° |
| 2026-04-27 11:20 | 45.67096 | 9.69880 | 788 ft | 11 kts | 332° |
| 2026-04-27 11:20 | 45.67132 | 9.69821 | 789 ft | 9 kts | 278° |
| 2026-04-27 11:20 | 45.67152 | 9.69712 | 789 ft | 13 kts | 285° |
| 2026-04-27 11:21 | 45.67176 | 9.69573 | 789 ft | 15 kts | 284° |
| 2026-04-27 11:21 | 45.67223 | 9.69481 | 788 ft | 7 kts | 340° |
| 2026-04-27 11:21 | 45.67256 | 9.69469 | 789 ft | 5 kts | 1° |
| 2026-04-27 11:21 | 45.67310 | 9.69523 | 791 ft | 3 kts | 1° |
| 2026-04-27 11:22 | 45.67327 | 9.69496 | 791 ft | 6 kts | 309° |
| 2026-04-27 11:22 | 45.67353 | 9.69473 | 791 ft | 1 kts | 36° |
| 2026-04-27 11:22 | 45.67355 | 9.69480 | 791 ft | 0 kts | 94° |